EZY912P EGBB-EGPH
Flight info
| Callsign | EZY912P |
|---|---|
| Flight time | N/A |
| Altitude | 28000 |
| Route | LUVUM DCT TNT N57 POL UN601 RIBEL DCT INPIP |
| Aircraft | A320/M-SDE1E2E3FGHIRWXY/LB1 |
Departure
| Time | 2026-04-30 22:31 |
|---|---|
| Airport | Birmingham Airport (EGBB) |
Arrival
| Time | N/A |
|---|---|
| Airport | Edinburgh Airport (EGPH) |
| Time | Latitude | Longitude | Altitude | Speed | Heading |
|---|---|---|---|---|---|
| 2026-04-30 22:17 | 52.45388 | -1.73593 | 321 ft | 0 kts | 145° |
| 2026-04-30 22:18 | 52.45394 | -1.73599 | 320 ft | 3 kts | 145° |
| 2026-04-30 22:19 | 52.45403 | -1.73609 | 321 ft | 0 kts | 146° |
| 2026-04-30 22:21 | 52.45414 | -1.73621 | 320 ft | 2 kts | 146° |
| 2026-04-30 22:21 | 52.45429 | -1.73634 | 322 ft | 2 kts | 176° |
| 2026-04-30 22:22 | 52.45446 | -1.73636 | 322 ft | 2 kts | 177° |
| 2026-04-30 22:22 | 52.45459 | -1.73633 | 322 ft | 0 kts | 232° |
| 2026-04-30 22:23 | 52.45445 | -1.73659 | 321 ft | 7 kts | 229° |
| 2026-04-30 22:23 | 52.45406 | -1.73752 | 323 ft | 13 kts | 236° |
| 2026-04-30 22:23 | 52.45349 | -1.73890 | 323 ft | 16 kts | 236° |
| 2026-04-30 22:24 | 52.45334 | -1.74111 | 323 ft | 17 kts | 296° |
| 2026-04-30 22:24 | 52.45371 | -1.74231 | 323 ft | 18 kts | 296° |
| 2026-04-30 22:24 | 52.45429 | -1.74424 | 323 ft | 20 kts | 296° |
| 2026-04-30 22:24 | 52.45501 | -1.74598 | 323 ft | 16 kts | 326° |
| 2026-04-30 22:25 | 52.45599 | -1.74709 | 319 ft | 19 kts | 325° |
| 2026-04-30 22:25 | 52.45720 | -1.74847 | 312 ft | 21 kts | 325° |
| 2026-04-30 22:25 | 52.45845 | -1.74985 | 307 ft | 21 kts | 328° |
| 2026-04-30 22:25 | 52.45973 | -1.75125 | 305 ft | 23 kts | 326° |
| 2026-04-30 22:26 | 52.46221 | -1.75404 | 302 ft | 20 kts | 325° |
| 2026-04-30 22:26 | 52.46341 | -1.75534 | 302 ft | 22 kts | 326° |
| 2026-04-30 22:26 | 52.46470 | -1.75678 | 302 ft | 23 kts | 326° |
| 2026-04-30 22:27 | 52.46582 | -1.75802 | 305 ft | 12 kts | 326° |
| 2026-04-30 22:27 | 52.46595 | -1.75816 | 307 ft | 0 kts | 326° |
| 2026-04-30 22:28 | 52.46595 | -1.75817 | 307 ft | 1 kts | 326° |
| 2026-04-30 22:29 | 52.46534 | -1.76075 | 307 ft | 12 kts | 158° |
| 2026-04-30 22:29 | 52.46478 | -1.76014 | 309 ft | 10 kts | 145° |
| 2026-04-30 22:30 | 52.46121 | -1.75615 | 310 ft | 93 kts | 146° |
| 2026-04-30 22:31 | 52.41016 | -1.69790 | 2370 ft | 195 kts | 129° |
| 2026-04-30 22:32 | 52.41305 | -1.62916 | 4021 ft | 227 kts | 51° |
| 2026-04-30 22:32 | 52.43953 | -1.60276 | 5525 ft | 229 kts | 13° |
| 2026-04-30 22:33 | 52.48994 | -1.59909 | 7093 ft | 271 kts | 355° |
| 2026-04-30 22:33 | 52.52716 | -1.61202 | 8584 ft | 281 kts | 335° |
| 2026-04-30 22:34 | 52.58282 | -1.65220 | 10454 ft | 311 kts | 335° |
| 2026-04-30 22:35 | 52.62324 | -1.68129 | 11879 ft | 321 kts | 335° |
| 2026-04-30 22:36 | 52.70776 | -1.73791 | 14659 ft | 336 kts | 348° |
| 2026-04-30 22:36 | 52.73118 | -1.74182 | 15322 ft | 341 kts | 360° |
| 2026-04-30 22:37 | 52.80288 | -1.72713 | 17173 ft | 351 kts | 7° |
| 2026-04-30 22:37 | 52.82722 | -1.72156 | 17766 ft | 354 kts | 7° |
| 2026-04-30 22:37 | 52.87648 | -1.71038 | 18920 ft | 361 kts | 7° |
| 2026-04-30 22:38 | 52.92665 | -1.69902 | 20021 ft | 367 kts | 7° |
| 2026-04-30 22:38 | 52.97766 | -1.68743 | 21084 ft | 373 kts | 7° |
| 2026-04-30 22:39 | 53.00346 | -1.68157 | 21597 ft | 376 kts | 7° |
| 2026-04-30 22:39 | 53.08188 | -1.68738 | 23059 ft | 383 kts | 341° |
| 2026-04-30 22:40 | 53.15724 | -1.73405 | 24467 ft | 391 kts | 339° |
| 2026-04-30 22:41 | 53.23464 | -1.78201 | 25788 ft | 400 kts | 339° |
| 2026-04-30 22:41 | 53.28714 | -1.81465 | 26612 ft | 405 kts | 339° |
| 2026-04-30 22:42 | 53.39404 | -1.88157 | 27960 ft | 415 kts | 339° |
| 2026-04-30 22:43 | 53.44652 | -1.91454 | 28003 ft | 387 kts | 339° |
| 2026-04-30 22:43 | 53.49519 | -1.94530 | 28006 ft | 365 kts | 339° |
| 2026-04-30 22:44 | 53.54255 | -1.97532 | 28013 ft | 363 kts | 339° |
| 2026-04-30 22:45 | 53.68411 | -2.06512 | 28006 ft | 362 kts | 339° |
| 2026-04-30 22:47 | 53.82491 | -2.15814 | 28003 ft | 362 kts | 337° |
| 2026-04-30 22:48 | 53.91792 | -2.22212 | 28006 ft | 362 kts | 337° |
| 2026-04-30 22:49 | 54.05772 | -2.31831 | 27999 ft | 361 kts | 337° |
| 2026-04-30 22:51 | 54.18945 | -2.40957 | 27995 ft | 361 kts | 337° |
| 2026-04-30 22:51 | 54.23598 | -2.44201 | 27991 ft | 361 kts | 337° |
| 2026-04-30 22:52 | 54.25927 | -2.45826 | 27994 ft | 362 kts | 337° |
| 2026-04-30 22:52 | 54.30584 | -2.49074 | 27995 ft | 362 kts | 337° |
| 2026-04-30 22:53 | 54.35241 | -2.52326 | 27995 ft | 361 kts | 337° |
| 2026-04-30 22:53 | 54.39903 | -2.55594 | 27995 ft | 362 kts | 337° |
| 2026-04-30 22:53 | 54.42231 | -2.57236 | 27995 ft | 362 kts | 337° |
| 2026-04-30 22:54 | 54.46890 | -2.60523 | 28000 ft | 361 kts | 337° |
| 2026-04-30 22:55 | 54.53866 | -2.65457 | 27998 ft | 361 kts | 337° |
| 2026-04-30 22:55 | 54.58512 | -2.68755 | 27995 ft | 361 kts | 337° |
| 2026-04-30 22:56 | 54.63160 | -2.72053 | 28001 ft | 361 kts | 337° |
| 2026-04-30 22:56 | 54.70124 | -2.77018 | 27999 ft | 361 kts | 336° |
| 2026-04-30 22:57 | 54.74763 | -2.80347 | 28001 ft | 361 kts | 336° |
| 2026-04-30 22:57 | 54.79441 | -2.83700 | 28015 ft | 375 kts | 336° |
| 2026-04-30 22:58 | 54.84344 | -2.87223 | 27335 ft | 379 kts | 336° |
| 2026-04-30 22:59 | 54.91537 | -2.92402 | 25149 ft | 365 kts | 336° |
| 2026-04-30 22:59 | 54.98472 | -2.97428 | 23630 ft | 358 kts | 336° |